createdAt,value
2022-08-05T00:01:36.159Z,25.84
2022-08-05T00:04:18.194Z,26.00
2022-08-05T00:06:51.683Z,26.05
2022-08-05T00:09:20.932Z,26.05
2022-08-05T00:11:56.181Z,25.88
2022-08-05T00:14:29.117Z,25.94
2022-08-05T00:16:58.548Z,25.73
2022-08-05T00:19:33.638Z,25.77
2022-08-05T00:22:14.453Z,25.76
2022-08-05T00:24:47.208Z,25.74
2022-08-05T00:27:36.315Z,25.81
2022-08-05T00:30:11.345Z,25.78
2022-08-05T00:32:40.442Z,25.69
2022-08-05T00:35:10.115Z,25.85
2022-08-05T00:37:52.934Z,25.78
2022-08-05T00:40:26.931Z,25.74
2022-08-05T00:42:59.126Z,25.77
2022-08-05T00:45:38.392Z,25.79
2022-08-05T00:48:09.285Z,25.71
2022-08-05T00:50:39.496Z,25.77
2022-08-05T00:53:45.188Z,25.87
2022-08-05T00:55:59.783Z,25.66
2022-08-05T00:58:30.284Z,25.77
2022-08-05T01:00:59.047Z,25.62
2022-08-05T01:03:33.319Z,25.54
2022-08-05T01:06:05.432Z,25.50
2022-08-05T01:08:43.195Z,25.67
2022-08-05T01:11:22.133Z,25.69
2022-08-05T01:14:03.253Z,25.53
2022-08-05T01:16:40.980Z,25.58
2022-08-05T01:19:21.192Z,25.64
2022-08-05T01:22:18.880Z,25.57
2022-08-05T01:25:15.830Z,25.59
2022-08-05T01:27:56.012Z,25.33
2022-08-05T01:30:34.844Z,25.55
2022-08-05T01:33:04.963Z,25.55
2022-08-05T01:35:52.062Z,25.33
2022-08-05T01:38:26.830Z,25.52
2022-08-05T01:40:59.717Z,25.29
2022-08-05T01:43:31.908Z,25.34
2022-08-05T01:46:06.914Z,25.32
2022-08-05T01:48:49.362Z,25.28
2022-08-05T01:51:19.949Z,25.46
2022-08-05T01:53:58.024Z,25.43
2022-08-05T01:58:12.660Z,25.51
2022-08-05T01:59:23.161Z,25.30
2022-08-05T02:01:55.094Z,25.25
2022-08-05T02:04:25.584Z,25.09
2022-08-05T02:06:55.030Z,25.21
2022-08-05T02:09:24.652Z,25.13
2022-08-05T02:12:02.923Z,25.15
2022-08-05T02:14:34.791Z,25.07
2022-08-05T02:17:06.555Z,25.18
2022-08-05T02:19:47.403Z,25.02
2022-08-05T02:22:26.661Z,25.03
2022-08-05T02:25:03.627Z,25.08
2022-08-05T02:27:58.649Z,25.03
2022-08-05T02:30:26.948Z,25.04
2022-08-05T02:32:56.975Z,24.92
2022-08-05T02:35:33.174Z,24.91
2022-08-05T02:38:09.370Z,24.78
2022-08-05T02:40:40.137Z,24.95
2022-08-05T02:43:09.651Z,24.84
2022-08-05T02:45:52.221Z,24.91
2022-08-05T02:48:29.120Z,24.87
2022-08-05T02:50:59.975Z,24.72
2022-08-05T02:53:29.196Z,24.74
2022-08-05T02:56:15.938Z,24.65
2022-08-05T02:58:51.485Z,24.64
2022-08-05T03:01:26.998Z,24.57
2022-08-05T03:04:03.170Z,24.56
2022-08-05T03:06:56.939Z,24.48
2022-08-05T03:09:37.548Z,24.47
2022-08-05T03:12:08.732Z,24.48
2022-08-05T03:14:45.652Z,24.37
2022-08-05T03:17:16.432Z,24.43
2022-08-05T03:19:45.570Z,24.44
2022-08-05T03:22:16.277Z,24.38
2022-08-05T03:24:50.965Z,24.47
2022-08-05T03:27:22.104Z,24.34
2022-08-05T03:30:08.503Z,24.26
2022-08-05T03:32:39.402Z,24.22
2022-08-05T03:35:09.373Z,24.32
2022-08-05T03:37:46.281Z,24.37
2022-08-05T03:40:24.333Z,24.31
2022-08-05T03:43:15.745Z,24.20
2022-08-05T03:45:57.514Z,24.17
2022-08-05T03:48:29.527Z,24.22
2022-08-05T03:52:34.996Z,24.06
2022-08-05T03:55:50.693Z,23.95
2022-08-05T03:56:49.941Z,24.11
2022-08-05T03:59:22.243Z,24.02
2022-08-05T04:01:58.731Z,24.11
2022-08-05T04:04:32.874Z,24.06
2022-08-05T04:07:02.028Z,24.10
2022-08-05T04:09:36.523Z,24.11
2022-08-05T04:12:06.032Z,24.11
2022-08-05T04:14:53.841Z,24.16
2022-08-05T04:17:55.500Z,24.17
2022-08-05T04:20:24.327Z,24.18
2022-08-05T04:22:54.991Z,24.01
2022-08-05T04:25:57.900Z,24.06
2022-08-05T04:28:14.971Z,24.12
2022-08-05T04:30:44.011Z,24.24
2022-08-05T04:33:12.747Z,24.22
2022-08-05T04:36:11.095Z,24.28
2022-08-05T04:38:39.506Z,24.36
2022-08-05T04:41:10.761Z,24.24
2022-08-05T04:43:48.155Z,24.54
2022-08-05T04:46:28.270Z,24.47
2022-08-05T04:48:58.743Z,24.61
2022-08-05T04:51:30.496Z,24.63
2022-08-05T04:54:01.369Z,24.89
2022-08-05T04:56:34.553Z,24.85
2022-08-05T04:59:24.344Z,24.87
2022-08-05T05:02:07.670Z,25.03
2022-08-05T05:04:48.018Z,25.16
2022-08-05T05:07:24.001Z,25.38
2022-08-05T05:09:58.189Z,25.46
2022-08-05T05:12:27.214Z,25.92
2022-08-05T05:14:56.316Z,26.04
2022-08-05T05:17:56.882Z,26.86
2022-08-05T05:20:14.498Z,27.59
2022-08-05T05:22:44.725Z,28.28
2022-08-05T05:25:17.038Z,28.92
2022-08-05T05:27:53.611Z,29.63
2022-08-05T05:30:29.190Z,29.61
2022-08-05T05:33:00.866Z,29.81
2022-08-05T05:35:37.986Z,30.22
2022-08-05T05:38:13.405Z,30.07
2022-08-05T05:40:50.021Z,29.97
2022-08-05T05:43:54.065Z,30.17
2022-08-05T05:46:17.306Z,30.23
2022-08-05T05:48:48.844Z,29.98
2022-08-05T05:51:21.231Z,30.01
2022-08-05T05:53:57.843Z,29.83
2022-08-05T05:56:33.084Z,29.99
2022-08-05T05:59:05.711Z,29.83
2022-08-05T06:01:38.182Z,30.09
2022-08-05T06:04:11.702Z,29.96
2022-08-05T06:06:42.652Z,30.12
2022-08-05T06:09:17.729Z,30.00
2022-08-05T06:11:59.198Z,30.03
2022-08-05T06:14:29.271Z,29.73
2022-08-05T06:16:58.170Z,29.49
2022-08-05T06:19:34.666Z,29.08
2022-08-05T06:22:04.597Z,29.23
2022-08-05T06:24:36.413Z,29.01
2022-08-05T06:27:17.296Z,29.08
2022-08-05T06:30:02.827Z,28.67
2022-08-05T06:32:36.530Z,28.76
2022-08-05T06:35:21.899Z,29.17
2022-08-05T06:37:59.032Z,28.94
2022-08-05T06:40:32.415Z,28.83
2022-08-05T06:43:01.560Z,28.86
2022-08-05T06:45:44.753Z,28.91
2022-08-05T06:48:52.498Z,28.76
2022-08-05T06:51:09.732Z,29.02
2022-08-05T06:53:39.513Z,29.28
2022-08-05T06:56:16.265Z,29.29
2022-08-05T06:58:55.780Z,29.34
2022-08-05T07:01:27.712Z,29.26
2022-08-05T07:04:03.014Z,29.62
2022-08-05T07:06:32.201Z,29.62
2022-08-05T07:09:03.982Z,29.59
2022-08-05T07:11:39.865Z,29.91
2022-08-05T07:14:29.455Z,29.96
2022-08-05T07:18:00.996Z,29.95
2022-08-05T07:22:42.741Z,30.06
2022-08-05T07:25:55.384Z,30.12
2022-08-05T07:28:05.985Z,30.53
2022-08-05T07:30:39.927Z,30.55
2022-08-05T07:33:16.650Z,30.44
2022-08-05T07:36:05.300Z,30.52
2022-08-05T07:38:43.617Z,30.60
2022-08-05T07:42:08.574Z,30.73
2022-08-05T07:44:18.603Z,30.91
2022-08-05T07:46:49.581Z,30.81
2022-08-05T07:49:19.516Z,30.95
2022-08-05T07:51:53.700Z,31.05
2022-08-05T07:54:31.267Z,31.00
2022-08-05T07:57:18.091Z,31.14
2022-08-05T07:59:53.698Z,31.32
2022-08-05T08:02:26.777Z,31.47
2022-08-05T08:05:00.133Z,31.36
2022-08-05T08:07:29.376Z,31.76
2022-08-05T08:10:09.204Z,31.80
2022-08-05T08:12:49.423Z,31.86
2022-08-05T08:15:37.210Z,31.81
2022-08-05T08:18:09.954Z,31.88
2022-08-05T08:21:03.114Z,31.95
2022-08-05T08:24:01.106Z,31.84
2022-08-05T08:26:26.703Z,31.99
2022-08-05T08:29:21.508Z,32.25
2022-08-05T08:31:50.896Z,31.84
2022-08-05T08:34:30.389Z,32.34
2022-08-05T08:37:04.679Z,32.31
2022-08-05T08:39:37.751Z,32.45
2022-08-05T08:42:22.520Z,32.65
2022-08-05T08:45:23.263Z,32.48
2022-08-05T08:48:12.835Z,32.78
2022-08-05T08:51:22.247Z,32.73
2022-08-05T08:53:36.795Z,32.82
2022-08-05T08:56:07.104Z,32.97
2022-08-05T08:58:43.132Z,32.88
2022-08-05T09:01:17.400Z,32.51
2022-08-05T09:03:54.506Z,32.55
2022-08-05T09:06:29.684Z,32.96
2022-08-05T09:09:00.553Z,32.98
2022-08-05T09:11:51.504Z,33.29
2022-08-05T09:14:59.129Z,33.00
2022-08-05T09:17:16.017Z,33.07
2022-08-05T09:20:02.848Z,33.52
2022-08-05T09:23:08.968Z,33.51
2022-08-05T09:26:03.274Z,33.60
2022-08-05T09:28:32.182Z,33.81
2022-08-05T09:31:18.228Z,34.03
2022-08-05T09:33:56.177Z,34.06
2022-08-05T09:36:45.703Z,33.98
2022-08-05T09:39:27.735Z,34.11
2022-08-05T09:42:11.393Z,34.32
2022-08-05T09:44:50.471Z,34.30
2022-08-05T09:47:22.896Z,34.44
2022-08-05T09:49:54.997Z,34.51
2022-08-05T09:52:34.635Z,34.74
2022-08-05T09:55:06.482Z,34.78
2022-08-05T09:57:54.759Z,34.71
2022-08-05T10:00:27.650Z,35.00
2022-08-05T10:02:59.122Z,35.03
2022-08-05T10:05:33.017Z,35.03
2022-08-05T10:08:10.649Z,34.80
2022-08-05T10:10:57.173Z,34.97
2022-08-05T10:13:45.593Z,35.23
2022-08-05T10:16:32.268Z,35.00
2022-08-05T10:19:08.455Z,35.24
2022-08-05T10:21:40.845Z,34.98
2022-08-05T10:24:13.652Z,35.24
2022-08-05T10:26:51.618Z,35.14
2022-08-05T10:29:24.030Z,35.57
2022-08-05T10:33:01.488Z,35.29
2022-08-05T10:35:01.468Z,35.57
2022-08-05T10:37:37.238Z,35.69
2022-08-05T10:40:28.101Z,35.87
2022-08-05T10:43:01.152Z,35.94
2022-08-05T10:45:41.691Z,36.26
2022-08-05T10:48:35.086Z,36.27
2022-08-05T10:51:21.670Z,36.43
2022-08-05T10:53:58.487Z,36.48
2022-08-05T10:56:45.240Z,36.44
2022-08-05T11:00:03.155Z,36.63
2022-08-05T11:02:08.844Z,36.90
2022-08-05T11:04:47.785Z,37.11
2022-08-05T11:07:18.733Z,37.20
2022-08-05T11:10:04.101Z,36.63
2022-08-05T11:12:54.171Z,36.68
2022-08-05T11:16:00.779Z,36.59
2022-08-05T11:18:30.069Z,37.12
2022-08-05T11:21:02.750Z,37.41
2022-08-05T11:24:04.448Z,37.48
2022-08-05T11:26:28.172Z,37.66
2022-08-05T11:29:12.146Z,37.66
2022-08-05T11:31:57.971Z,37.12
2022-08-05T11:34:47.197Z,37.93
2022-08-05T11:38:29.935Z,37.78
2022-08-05T11:41:35.638Z,38.04
2022-08-05T11:44:06.462Z,38.17
2022-08-05T11:46:58.297Z,38.52
2022-08-05T11:49:28.994Z,38.54
2022-08-05T11:52:08.834Z,38.45
2022-08-05T11:54:41.757Z,38.42
2022-08-05T11:57:39.397Z,38.68
2022-08-05T12:00:01.060Z,38.85
2022-08-05T12:02:41.502Z,38.70
2022-08-05T12:05:36.347Z,38.72
2022-08-05T12:08:11.549Z,39.09
2022-08-05T12:10:47.077Z,39.18
2022-08-05T12:13:27.773Z,39.36
2022-08-05T12:16:14.693Z,39.65
2022-08-05T12:18:49.622Z,39.34
2022-08-05T12:21:24.300Z,39.47
2022-08-05T12:23:54.214Z,39.61
2022-08-05T12:26:23.212Z,39.38
2022-08-05T12:28:52.785Z,39.64
2022-08-05T12:31:23.788Z,39.55
2022-08-05T12:34:20.669Z,39.75
2022-08-05T12:36:53.327Z,39.92
2022-08-05T12:39:28.118Z,39.95
2022-08-05T12:42:04.000Z,40.38
2022-08-05T12:44:37.524Z,40.04
2022-08-05T12:47:12.281Z,40.53
2022-08-05T12:50:04.340Z,40.57
2022-08-05T12:52:41.874Z,40.52
2022-08-05T12:55:22.197Z,40.61
2022-08-05T12:58:49.460Z,40.60
2022-08-05T13:02:04.267Z,41.00
2022-08-05T13:03:41.645Z,41.23
2022-08-05T13:06:19.608Z,41.30
2022-08-05T13:08:51.740Z,41.12
2022-08-05T13:12:01.920Z,41.17
2022-08-05T13:14:24.725Z,41.48
2022-08-05T13:17:09.344Z,41.24
2022-08-05T13:19:51.590Z,41.33
2022-08-05T13:22:28.298Z,41.42
2022-08-05T13:25:05.139Z,41.45
2022-08-05T13:27:38.063Z,41.02
2022-08-05T13:30:33.513Z,41.45
2022-08-05T13:33:01.392Z,41.65
2022-08-05T13:35:42.407Z,41.54
2022-08-05T13:38:20.483Z,42.04
2022-08-05T13:40:59.537Z,42.41
2022-08-05T13:43:43.963Z,42.54
2022-08-05T13:46:26.450Z,42.70
2022-08-05T13:49:10.321Z,42.78
2022-08-05T13:51:46.343Z,42.27
2022-08-05T13:54:21.126Z,42.62
2022-08-05T13:56:54.156Z,42.76
2022-08-05T13:59:26.829Z,42.99
2022-08-05T14:01:57.754Z,43.17
2022-08-05T14:04:49.694Z,42.97
2022-08-05T14:07:55.519Z,43.12
2022-08-05T14:10:13.044Z,43.32
2022-08-05T14:12:42.828Z,43.56
2022-08-05T14:16:04.741Z,43.42
2022-08-05T14:18:02.036Z,43.55
2022-08-05T14:20:33.843Z,43.50
2022-08-05T14:23:02.662Z,43.77
2022-08-05T14:25:32.555Z,43.70
2022-08-05T14:28:01.421Z,43.71
2022-08-05T14:30:29.988Z,43.93
2022-08-05T14:32:58.844Z,44.01
2022-08-05T14:35:37.534Z,43.87
2022-08-05T14:38:31.736Z,44.10
2022-08-05T14:41:06.370Z,44.05
2022-08-05T14:44:02.271Z,43.90
2022-08-05T14:46:29.134Z,44.12
2022-08-05T14:49:03.472Z,44.24
2022-08-05T14:51:37.457Z,44.34
2022-08-05T14:54:29.930Z,43.68
2022-08-05T14:56:57.392Z,44.20
2022-08-05T14:59:29.531Z,44.19
2022-08-05T15:02:15.854Z,44.26
2022-08-05T15:04:47.889Z,44.37
2022-08-05T15:08:11.225Z,44.34
2022-08-05T15:10:09.623Z,44.57
2022-08-05T15:12:59.661Z,44.81
2022-08-05T15:15:54.510Z,45.02
2022-08-05T15:18:18.041Z,44.89
2022-08-05T15:20:46.537Z,44.86
2022-08-05T15:23:16.759Z,44.70
2022-08-05T15:25:52.148Z,44.52
2022-08-05T15:28:27.229Z,44.31
2022-08-05T15:30:57.394Z,44.54
2022-08-05T15:34:04.112Z,44.73
2022-08-05T15:36:17.185Z,44.82
2022-08-05T15:41:00.919Z,44.91
2022-08-05T15:41:56.123Z,44.72
2022-08-05T15:44:30.311Z,44.66
2022-08-05T15:47:00.494Z,44.34
2022-08-05T15:49:48.277Z,44.28
2022-08-05T15:52:51.825Z,44.15
2022-08-05T15:55:07.904Z,44.62
2022-08-05T15:57:39.232Z,44.64
2022-08-05T16:00:11.424Z,44.60
2022-08-05T16:02:40.431Z,44.58
2022-08-05T16:05:11.259Z,44.24
2022-08-05T16:07:46.233Z,43.85
2022-08-05T16:10:15.392Z,43.35
2022-08-05T16:12:46.516Z,42.98
2022-08-05T16:15:18.396Z,42.69
2022-08-05T16:17:57.306Z,42.53
2022-08-05T16:20:27.890Z,42.52
2022-08-05T16:22:57.473Z,42.36
2022-08-05T16:25:32.257Z,42.38
2022-08-05T16:28:05.734Z,42.32
2022-08-05T16:30:36.844Z,42.28
2022-08-05T16:33:05.777Z,42.01
2022-08-05T16:35:42.232Z,41.77
2022-08-05T16:38:18.700Z,41.46
2022-08-05T16:41:00.265Z,40.99
2022-08-05T16:43:31.505Z,40.69
2022-08-05T16:46:23.703Z,40.04
2022-08-05T16:48:53.570Z,39.88
2022-08-05T16:51:24.722Z,39.49
2022-08-05T16:54:03.885Z,38.98
2022-08-05T16:56:41.697Z,38.51
2022-08-05T16:59:15.614Z,38.35
2022-08-05T17:01:53.217Z,38.24
2022-08-05T17:04:26.375Z,37.85
2022-08-05T17:07:01.108Z,37.77
2022-08-05T17:09:38.913Z,37.61
2022-08-05T17:12:22.606Z,37.29
2022-08-05T17:15:09.406Z,37.05
2022-08-05T17:17:42.798Z,36.72
2022-08-05T17:20:14.821Z,36.68
2022-08-05T17:22:46.076Z,36.41
2022-08-05T17:25:39.367Z,36.41
2022-08-05T17:28:11.307Z,36.26
2022-08-05T17:30:51.803Z,36.07
2022-08-05T17:33:23.032Z,35.96
2022-08-05T17:36:08.863Z,35.71
2022-08-05T17:38:40.947Z,35.57
2022-08-05T17:42:16.355Z,35.38
2022-08-05T17:44:03.732Z,35.17
2022-08-05T17:46:32.748Z,34.97
2022-08-05T17:49:02.727Z,34.78
2022-08-05T17:51:40.336Z,34.65
2022-08-05T17:54:09.362Z,34.56
2022-08-05T17:56:38.717Z,34.40
2022-08-05T17:59:07.363Z,34.25
2022-08-05T18:01:49.607Z,34.10
2022-08-05T18:04:21.434Z,33.88
2022-08-05T18:07:00.327Z,33.76
2022-08-05T18:10:00.054Z,33.67
2022-08-05T18:12:24.537Z,33.58
2022-08-05T18:14:53.947Z,33.33
2022-08-05T18:18:00.133Z,33.24
2022-08-05T18:20:14.128Z,33.11
2022-08-05T18:22:53.759Z,32.93
2022-08-05T18:25:23.724Z,32.76
2022-08-05T18:27:53.815Z,32.62
2022-08-05T18:30:22.419Z,32.40
2022-08-05T18:33:00.303Z,32.34
2022-08-05T18:36:00.696Z,32.17
2022-08-05T18:38:25.737Z,32.05
2022-08-05T18:41:58.226Z,31.91
2022-08-05T18:43:49.039Z,31.83
2022-08-05T18:46:20.258Z,31.73
2022-08-05T18:48:51.537Z,31.66
2022-08-05T18:52:03.354Z,31.57
2022-08-05T18:54:31.243Z,31.55
2022-08-05T18:57:01.426Z,31.51
2022-08-05T18:59:44.082Z,31.45
2022-08-05T19:02:28.210Z,31.36
2022-08-05T19:05:02.074Z,31.33
2022-08-05T19:07:50.297Z,31.16
2022-08-05T19:10:28.079Z,31.04
2022-08-05T19:12:57.606Z,30.95
2022-08-05T19:15:59.222Z,30.99
2022-08-05T19:18:21.819Z,30.95
2022-08-05T19:20:52.925Z,30.86
2022-08-05T19:24:06.717Z,30.68
2022-08-05T19:26:12.900Z,30.59
2022-08-05T19:28:43.131Z,30.65
2022-08-05T19:31:13.575Z,30.70
2022-08-05T19:33:48.159Z,30.68
2022-08-05T19:36:26.692Z,30.51
2022-08-05T19:39:01.015Z,30.44
2022-08-05T19:41:58.184Z,30.41
2022-08-05T19:44:20.427Z,30.27
2022-08-05T19:46:50.172Z,30.24
2022-08-05T19:49:19.755Z,30.13
2022-08-05T19:52:09.040Z,30.11
2022-08-05T19:54:39.039Z,30.26
2022-08-05T19:57:10.820Z,30.15
2022-08-05T19:59:54.727Z,30.07
2022-08-05T20:02:32.234Z,29.89
2022-08-05T20:05:01.340Z,29.92
2022-08-05T20:07:47.183Z,29.82
2022-08-05T20:10:22.428Z,29.92
2022-08-05T20:12:53.437Z,29.68
2022-08-05T20:15:51.862Z,29.68
2022-08-05T20:18:32.691Z,29.76
2022-08-05T20:21:01.021Z,29.66
2022-08-05T20:23:44.539Z,29.71
2022-08-05T20:26:23.835Z,29.62
2022-08-05T20:28:55.816Z,29.63
2022-08-05T20:31:36.924Z,29.49
2022-08-05T20:34:12.430Z,29.56
2022-08-05T20:36:43.389Z,29.50
2022-08-05T20:39:13.470Z,29.60
2022-08-05T20:41:48.165Z,29.31
2022-08-05T20:44:29.478Z,28.84
2022-08-05T20:47:00.106Z,28.86
2022-08-05T20:49:28.945Z,28.84
2022-08-05T20:51:58.340Z,29.17
2022-08-05T20:54:43.308Z,29.20
2022-08-05T20:57:24.912Z,29.25
2022-08-05T21:00:34.923Z,29.14
2022-08-05T21:03:01.140Z,28.94
2022-08-05T21:05:47.937Z,29.01
2022-08-05T21:08:19.046Z,28.69
2022-08-05T21:10:48.842Z,28.87
2022-08-05T21:13:26.423Z,28.92
2022-08-05T21:16:08.714Z,28.93
2022-08-05T21:18:37.356Z,28.58
2022-08-05T21:21:06.288Z,28.72
2022-08-05T21:23:37.358Z,28.74
2022-08-05T21:26:12.350Z,28.26
2022-08-05T21:28:47.984Z,28.48
2022-08-05T21:31:20.263Z,28.58
2022-08-05T21:33:50.356Z,28.64
2022-08-05T21:36:29.808Z,28.68
2022-08-05T21:38:59.040Z,28.45
2022-08-05T21:41:32.868Z,28.38
2022-08-05T21:44:05.300Z,28.26
2022-08-05T21:46:34.306Z,28.23
2022-08-05T21:49:07.265Z,28.06
2022-08-05T21:52:28.153Z,28.06
2022-08-05T21:54:28.085Z,28.20
2022-08-05T21:57:29.805Z,27.96
2022-08-05T22:00:04.988Z,27.90
2022-08-05T22:02:42.525Z,27.81
2022-08-05T22:05:11.981Z,27.91
2022-08-05T22:07:58.469Z,27.72
2022-08-05T22:10:29.239Z,27.78
2022-08-05T22:13:09.129Z,27.65
2022-08-05T22:16:02.156Z,27.60
2022-08-05T22:18:39.001Z,27.55
2022-08-05T22:21:17.885Z,27.66
2022-08-05T22:24:08.942Z,27.57
2022-08-05T22:26:59.973Z,27.40
2022-08-05T22:29:32.881Z,27.24
2022-08-05T22:32:03.624Z,27.41
2022-08-05T22:34:32.749Z,27.24
2022-08-05T22:37:03.889Z,27.34
2022-08-05T22:39:35.213Z,27.40
2022-08-05T22:42:12.149Z,27.31
2022-08-05T22:44:48.662Z,27.35
2022-08-05T22:47:30.004Z,27.26
2022-08-05T22:50:19.513Z,27.30
2022-08-05T22:52:49.615Z,27.30
2022-08-05T22:55:21.343Z,27.13
2022-08-05T22:57:51.120Z,27.12
2022-08-05T23:00:21.791Z,27.00
2022-08-05T23:02:55.127Z,27.08
2022-08-05T23:05:24.244Z,26.94
2022-08-05T23:07:53.547Z,26.99
2022-08-05T23:10:23.462Z,26.93
2022-08-05T23:12:55.111Z,26.82
2022-08-05T23:15:27.105Z,26.86
2022-08-05T23:18:03.140Z,26.78
2022-08-05T23:20:33.540Z,26.79
2022-08-05T23:23:08.572Z,26.84
2022-08-05T23:25:54.747Z,26.75
2022-08-05T23:28:26.918Z,26.74
2022-08-05T23:31:16.062Z,26.67
2022-08-05T23:34:03.908Z,26.67
2022-08-05T23:36:38.582Z,26.64
2022-08-05T23:39:09.479Z,26.56
2022-08-05T23:41:41.014Z,26.47
2022-08-05T23:44:17.569Z,26.46
2022-08-05T23:46:48.809Z,26.44
2022-08-05T23:49:23.609Z,26.37
2022-08-05T23:52:11.771Z,26.38
2022-08-05T23:54:40.826Z,26.43
2022-08-05T23:57:10.017Z,26.37
